Time;durP1;ratioP1;P1;durP2;ratioP2;P2;SDS_P1;SDS_P2;PMS_P1;PMS_P2;Temp;Humidity;BMP_temperature;BMP_pressure;BME280_temperature;BME280_humidity;BME280_pressure;Samples;Min_cycle;Max_cycle;Signal;HPM_P1;HPM_P2
2022/10/23 04:01:00;;;;;;;1999.90;999.90;;;;;;;;;;5949415;22;21323;-65
2022/10/23 04:03:45;;;;;;;1999.90;999.90;;;;;;;;;;5035187;28;20702;-66
2022/10/23 04:06:30;;;;;;;1999.90;999.90;;;;;;;;;;5037229;28;20300;-65
2022/10/23 04:09:15;;;;;;;1999.90;999.90;;;;;;;;;;5040761;28;20260;-65
2022/10/23 04:12:00;;;;;;;1999.90;999.90;;;;;;;;;;5033147;28;20268;-65
2022/10/23 04:14:45;;;;;;;1999.90;999.90;;;;;;;;;;5025742;28;20207;-64
2022/10/23 04:17:31;;;;;;;1999.90;999.90;;;;;;;;;;5032867;28;20358;-64
2022/10/23 04:20:16;;;;;;;1999.90;999.90;;;;;;;;;;5025614;28;20634;-65
2022/10/23 04:23:01;;;;;;;1999.90;999.90;;;;;;;;;;5032419;28;20269;-66
2022/10/23 04:25:46;;;;;;;1999.90;999.90;;;;;;;;;;5033604;28;20279;-66
2022/10/23 04:28:31;;;;;;;1999.90;999.90;;;;;;;;;;5024692;28;20353;-65
2022/10/23 04:31:16;;;;;;;1999.90;999.90;;;;;;;;;;5032460;28;20232;-65
2022/10/23 04:34:03;;;;;;;1999.90;999.90;;;;;;;;;;5029569;28;20224;-65
2022/10/23 04:36:48;;;;;;;1999.90;999.90;;;;;;;;;;5032315;28;20212;-66
2022/10/23 04:39:32;;;;;;;1999.90;999.90;;;;;;;;;;5013984;28;20266;-65
2022/10/23 04:42:17;;;;;;;1999.90;999.90;;;;;;;;;;5013901;28;20350;-66
2022/10/23 04:45:02;;;;;;;1999.90;999.90;;;;;;;;;;5015070;28;20334;-66
2022/10/23 04:47:48;;;;;;;1999.90;999.90;;;;;;;;;;5032500;28;20216;-65
2022/10/23 04:50:34;;;;;;;1999.90;999.90;;;;;;;;;;5040688;28;20224;-63
2022/10/23 04:53:19;;;;;;;1999.90;999.90;;;;;;;;;;5033434;28;20253;-65
2022/10/23 04:56:04;;;;;;;1999.90;999.90;;;;;;;;;;5032805;28;20812;-64
2022/10/23 04:58:49;;;;;;;1999.90;999.90;;;;;;;;;;5032574;28;20230;-66
2022/10/23 05:01:33;;;;;;;1999.90;999.90;;;;;;;;;;5032141;28;20400;-64
2022/10/23 05:04:18;;;;;;;1999.90;999.90;;;;;;;;;;5039323;28;20402;-65
2022/10/23 05:07:05;;;;;;;1999.90;999.90;;;;;;;;;;5050929;28;20574;-66
2022/10/23 05:09:49;;;;;;;1999.90;999.90;;;;;;;;;;5051349;28;20272;-66
2022/10/23 05:12:34;;;;;;;1999.90;999.90;;;;;;;;;;5051018;28;20229;-66
2022/10/23 05:15:19;;;;;;;1999.90;999.90;;;;;;;;;;5050675;28;20229;-66
2022/10/23 05:18:08;;;;;;;1999.90;999.90;;;;;;;;;;5052662;28;20214;-66
2022/10/23 05:20:56;;;;;;;1999.90;999.90;;;;;;;;;;5052838;28;20584;-66
2022/10/23 05:23:43;;;;;;;1999.90;999.90;;;;;;;;;;5052913;28;20225;-66
2022/10/23 05:26:29;;;;;;;1999.90;999.90;;;;;;;;;;5035873;28;20210;-65
2022/10/23 05:29:14;;;;;;;1999.90;999.90;;;;;;;;;;5032716;28;20213;-65
2022/10/23 05:32:01;;;;;;;1999.90;999.90;;;;;;;;;;5032657;28;20230;-65
2022/10/23 05:34:46;;;;;;;1999.90;999.90;;;;;;;;;;5032538;28;20211;-66
2022/10/23 05:37:31;;;;;;;1999.90;999.90;;;;;;;;;;5033070;28;20211;-65
2022/10/23 05:40:18;;;;;;;1999.90;999.90;;;;;;;;;;5032516;28;20242;-66
2022/10/23 05:43:03;;;;;;;1999.90;999.90;;;;;;;;;;5032597;28;20206;-66
2022/10/23 05:45:48;;;;;;;1999.90;999.90;;;;;;;;;;5032510;28;20216;-65
2022/10/23 05:48:33;;;;;;;1999.90;999.90;;;;;;;;;;5031351;28;20908;-66
2022/10/23 05:51:21;;;;;;;1999.90;999.90;;;;;;;;;;5032730;28;20227;-65
2022/10/23 05:54:07;;;;;;;1999.90;999.90;;;;;;;;;;5032332;28;20346;-67
2022/10/23 05:56:53;;;;;;;1999.90;999.90;;;;;;;;;;5032568;28;20547;-66
2022/10/23 05:59:38;;;;;;;1999.90;999.90;;;;;;;;;;5031993;28;20231;-65
2022/10/23 06:02:23;;;;;;;1999.90;999.90;;;;;;;;;;5030057;28;20243;-67
2022/10/23 06:05:08;;;;;;;1999.90;999.90;;;;;;;;;;5026901;28;20209;-66
2022/10/23 06:07:56;;;;;;;1999.90;999.90;;;;;;;;;;5032079;28;20616;-68
2022/10/23 06:10:41;;;;;;;1999.90;999.90;;;;;;;;;;5019037;28;20310;-65
2022/10/23 06:13:27;;;;;;;1999.90;999.90;;;;;;;;;;5030667;28;20212;-67
2022/10/23 06:16:13;;;;;;;1999.90;999.90;;;;;;;;;;5028785;28;20243;-66
2022/10/23 06:18:59;;;;;;;1999.90;999.90;;;;;;;;;;5031613;28;20772;-67
2022/10/23 06:21:44;;;;;;;1999.90;999.90;;;;;;;;;;5031924;28;20242;-67
2022/10/23 06:24:29;;;;;;;1999.90;999.90;;;;;;;;;;5031698;28;20215;-67
2022/10/23 06:27:14;;;;;;;1999.90;999.90;;;;;;;;;;5031798;28;20313;-64
2022/10/23 06:30:00;;;;;;;1999.90;999.90;;;;;;;;;;5031941;28;20728;-67
2022/10/23 06:32:45;;;;;;;1999.90;999.90;;;;;;;;;;5031805;28;20713;-69
2022/10/23 06:35:29;;;;;;;1999.90;999.90;;;;;;;;;;5031464;28;20332;-67
2022/10/23 06:38:14;;;;;;;1999.90;999.90;;;;;;;;;;5031869;28;20331;-67
2022/10/23 06:40:59;;;;;;;1999.90;999.90;;;;;;;;;;5029095;28;20235;-67
2022/10/23 06:43:47;;;;;;;1999.90;999.90;;;;;;;;;;5023766;28;20650;-66
2022/10/23 06:46:34;;;;;;;1999.90;999.90;;;;;;;;;;5030673;28;20574;-68
2022/10/23 06:49:19;;;;;;;1999.90;999.90;;;;;;;;;;5017262;28;20249;-67
2022/10/23 06:52:04;;;;;;;1999.90;999.90;;;;;;;;;;5029493;28;20234;-67
2022/10/23 06:54:49;;;;;;;1999.90;999.90;;;;;;;;;;5031439;28;20228;-67
2022/10/23 06:57:34;;;;;;;1999.90;999.90;;;;;;;;;;5021219;28;20282;-66
2022/10/23 07:00:20;;;;;;;1999.90;999.90;;;;;;;;;;5031114;28;20297;-65
2022/10/23 07:03:07;;;;;;;1999.90;999.90;;;;;;;;;;5029662;28;20215;-67
2022/10/23 07:05:52;;;;;;;1999.90;999.90;;;;;;;;;;5027654;28;20212;-66
2022/10/23 07:08:37;;;;;;;1999.90;999.90;;;;;;;;;;5031637;28;20559;-67
2022/10/23 07:11:23;;;;;;;1999.90;999.90;;;;;;;;;;5011514;28;20223;-67
2022/10/23 07:14:08;;;;;;;1999.90;999.90;;;;;;;;;;5011770;28;20793;-67
2022/10/23 07:16:52;;;;;;;1999.90;999.90;;;;;;;;;;5015564;28;20220;-68
2022/10/23 07:19:38;;;;;;;1999.90;999.90;;;;;;;;;;5015436;28;20224;-68
2022/10/23 07:22:23;;;;;;;1999.90;999.90;;;;;;;;;;5017643;28;20226;-68
2022/10/23 07:25:08;;;;;;;1999.90;999.90;;;;;;;;;;5033503;28;20211;-68
2022/10/23 07:27:55;;;;;;;1999.90;999.90;;;;;;;;;;5025857;28;20220;-68
2022/10/23 07:30:40;;;;;;;1999.90;999.90;;;;;;;;;;5035033;28;20730;-68
2022/10/23 07:33:25;;;;;;;1999.90;999.90;;;;;;;;;;5030881;28;20211;-68
2022/10/23 07:36:11;;;;;;;1999.90;999.90;;;;;;;;;;5033487;28;20871;-68
2022/10/23 07:38:56;;;;;;;1999.90;999.90;;;;;;;;;;5034881;28;20221;-68
2022/10/23 07:41:41;;;;;;;1999.90;999.90;;;;;;;;;;5033715;28;20240;-69
2022/10/23 07:44:26;;;;;;;1999.90;999.90;;;;;;;;;;5026084;28;20593;-68
2022/10/23 07:47:11;;;;;;;1999.90;999.90;;;;;;;;;;5026500;28;20762;-68
2022/10/23 07:49:56;;;;;;;1999.90;999.90;;;;;;;;;;5034782;28;20227;-67
2022/10/23 07:52:42;;;;;;;1999.90;999.90;;;;;;;;;;5034170;28;20240;-68
2022/10/23 07:55:27;;;;;;;1999.90;999.90;;;;;;;;;;5014602;28;20726;-66
2022/10/23 07:58:12;;;;;;;1999.90;999.90;;;;;;;;;;5014720;28;20290;-67
2022/10/23 08:00:57;;;;;;;1999.90;999.90;;;;;;;;;;5033492;28;20311;-67
2022/10/23 08:03:43;;;;;;;1999.90;999.90;;;;;;;;;;5034496;28;20266;-66
2022/10/23 08:06:27;;;;;;;1999.90;999.90;;;;;;;;;;5033940;28;20679;-67
2022/10/23 08:09:14;;;;;;;1999.90;999.90;;;;;;;;;;5033169;28;20217;-66
2022/10/23 08:11:59;;;;;;;1999.90;999.90;;;;;;;;;;5034120;28;20331;-67
2022/10/23 08:14:44;;;;;;;1999.90;999.90;;;;;;;;;;5030485;28;20211;-65
2022/10/23 08:17:29;;;;;;;1999.90;999.90;;;;;;;;;;5028776;28;20534;-69
2022/10/23 08:20:14;;;;;;;1999.90;999.90;;;;;;;;;;5030232;28;20231;-67
2022/10/23 08:22:59;;;;;;;1999.90;999.90;;;;;;;;;;5029269;28;20208;-69
2022/10/23 08:25:45;;;;;;;1999.90;999.90;;;;;;;;;;5033599;28;20707;-68
2022/10/23 08:28:30;;;;;;;1999.90;999.90;;;;;;;;;;5031220;28;20213;-69
2022/10/23 08:31:16;;;;;;;1999.90;999.90;;;;;;;;;;5032423;28;20232;-68
2022/10/23 08:34:01;;;;;;;1999.90;999.90;;;;;;;;;;5024266;28;20596;-68
2022/10/23 08:36:46;;;;;;;1999.90;999.90;;;;;;;;;;5033946;28;20305;-70
2022/10/23 08:39:31;;;;;;;1999.90;999.90;;;;;;;;;;5033084;28;20209;-70
2022/10/23 08:42:20;;;;;;;1999.90;999.90;;;;;;;;;;5033740;28;20271;-69
2022/10/23 08:45:07;;;;;;;1999.90;999.90;;;;;;;;;;5033309;28;20267;-69
2022/10/23 08:47:54;;;;;;;1999.90;999.90;;;;;;;;;;5033710;28;20225;-70
2022/10/23 08:50:41;;;;;;;1999.90;999.90;;;;;;;;;;5033595;28;20280;-69
2022/10/23 08:53:29;;;;;;;1999.90;999.90;;;;;;;;;;5033605;28;20259;-68
2022/10/23 08:56:18;;;;;;;1999.90;999.90;;;;;;;;;;5032268;28;20690;-68
2022/10/23 08:59:07;;;;;;;1999.90;999.90;;;;;;;;;;5033040;28;20213;-69
2022/10/23 09:01:55;;;;;;;1999.90;999.90;;;;;;;;;;5021294;28;20238;-69
2022/10/23 09:04:41;;;;;;;1999.90;999.90;;;;;;;;;;5013229;28;20213;-69
2022/10/23 09:07:34;;;;;;;1999.90;999.90;;;;;;;;;;5013527;28;20205;-69
2022/10/23 09:10:25;;;;;;;1999.90;999.90;;;;;;;;;;5013147;28;20198;-69
2022/10/23 09:13:23;;;;;;;1999.90;999.90;;;;;;;;;;5030323;28;20214;-69
2022/10/23 09:16:15;;;;;;;1999.90;999.90;;;;;;;;;;5032836;28;20288;-68
2022/10/23 09:19:00;;;;;;;1999.90;999.90;;;;;;;;;;5026890;28;20284;-68
2022/10/23 09:21:48;;;;;;;1999.90;999.90;;;;;;;;;;5028076;28;20236;-69
2022/10/23 09:24:33;;;;;;;1999.90;999.90;;;;;;;;;;5032527;28;20212;-69
2022/10/23 09:27:18;;;;;;;1999.90;999.90;;;;;;;;;;5031998;28;20550;-68
2022/10/23 09:30:03;;;;;;;1999.90;999.90;;;;;;;;;;5030415;28;20220;-69
2022/10/23 09:32:50;;;;;;;1999.90;999.90;;;;;;;;;;5029226;28;20345;-69
2022/10/23 09:35:36;;;;;;;1999.90;999.90;;;;;;;;;;5028718;28;20720;-69
2022/10/23 09:38:28;;;;;;;1999.90;999.90;;;;;;;;;;5032661;28;20206;-68
2022/10/23 09:41:14;;;;;;;1999.90;999.90;;;;;;;;;;5034932;28;20234;-69
2022/10/23 09:44:00;;;;;;;1999.90;999.90;;;;;;;;;;5033077;28;20213;-68
2022/10/23 09:46:45;;;;;;;1999.90;999.90;;;;;;;;;;5031592;28;20339;-69
2022/10/23 09:49:33;;;;;;;1999.90;999.90;;;;;;;;;;5025995;28;20213;-68
2022/10/23 09:52:23;;;;;;;1999.90;999.90;;;;;;;;;;5031118;28;20727;-68
2022/10/23 09:55:18;;;;;;;1999.90;999.90;;;;;;;;;;5029168;28;20210;-68
2022/10/23 09:58:04;;;;;;;1999.90;999.90;;;;;;;;;;5021274;28;20246;-69
2022/10/23 10:00:49;;;;;;;1999.90;999.90;;;;;;;;;;5031868;28;20796;-68
2022/10/23 10:03:34;;;;;;;1999.90;999.90;;;;;;;;;;5032104;28;20811;-69
2022/10/23 10:06:23;;;;;;;1999.90;999.90;;;;;;;;;;5031161;28;20667;-68
2022/10/23 10:09:11;;;;;;;1999.90;999.90;;;;;;;;;;5031743;28;20352;-68
2022/10/23 10:12:14;;;;;;;1999.90;999.90;;;;;;;;;;5031776;28;20918;-68
2022/10/23 10:15:03;;;;;;;1999.90;999.90;;;;;;;;;;5031887;28;20205;-68
2022/10/23 10:17:54;;;;;;;1999.90;999.90;;;;;;;;;;5031739;28;20214;-69
2022/10/23 10:21:03;;;;;;;1999.90;999.90;;;;;;;;;;5025132;28;20211;-68
2022/10/23 10:23:54;;;;;;;1999.90;999.90;;;;;;;;;;5006995;28;20218;-68
2022/10/23 10:26:42;;;;;;;1999.90;999.90;;;;;;;;;;5022334;28;20209;-68
2022/10/23 10:29:35;;;;;;;1999.90;999.90;;;;;;;;;;5031895;28;20711;-68
2022/10/23 10:32:30;;;;;;;1999.90;999.90;;;;;;;;;;5031851;28;20213;-69
2022/10/23 10:35:25;;;;;;;1999.90;999.90;;;;;;;;;;5029263;28;20442;-69
2022/10/23 10:38:16;;;;;;;1999.90;999.90;;;;;;;;;;5031727;28;20209;-68
2022/10/23 10:41:21;;;;;;;1999.90;999.90;;;;;;;;;;5031655;28;20352;-69
2022/10/23 10:44:13;;;;;;;1999.90;999.90;;;;;;;;;;5028614;28;20636;-69
2022/10/23 10:46:59;;;;;;;1999.90;999.90;;;;;;;;;;5031613;28;20202;-69
2022/10/23 10:49:48;;;;;;;1999.90;999.90;;;;;;;;;;5032496;28;20210;-69
2022/10/23 10:52:37;;;;;;;1999.90;999.90;;;;;;;;;;5035765;28;20341;-69
2022/10/23 10:55:24;;;;;;;1999.90;999.90;;;;;;;;;;5034673;28;20567;-68
2022/10/23 10:58:15;;;;;;;1999.90;999.90;;;;;;;;;;5035542;28;20314;-69
2022/10/23 11:01:03;;;;;;;1999.90;999.90;;;;;;;;;;5032549;28;20237;-69
2022/10/23 11:03:51;;;;;;;1999.90;999.90;;;;;;;;;;5031319;28;20209;-68
2022/10/23 11:06:37;;;;;;;1999.90;999.90;;;;;;;;;;5035113;28;20284;-69
2022/10/23 11:09:25;;;;;;;1999.90;999.90;;;;;;;;;;5033293;28;20210;-68
2022/10/23 11:12:15;;;;;;;1999.90;999.90;;;;;;;;;;5034250;28;20602;-69
2022/10/23 11:15:01;;;;;;;1999.90;999.90;;;;;;;;;;5035126;28;20707;-69
2022/10/23 11:17:48;;;;;;;1999.90;999.90;;;;;;;;;;5033171;28;20218;-70
2022/10/23 11:20:44;;;;;;;1999.90;999.90;;;;;;;;;;5028464;28;20229;-69
2022/10/23 11:23:53;;;;;;;1999.90;999.90;;;;;;;;;;5035312;28;20276;-70
2022/10/23 11:26:46;;;;;;;1999.90;999.90;;;;;;;;;;5025237;28;20225;-69
2022/10/23 11:29:43;;;;;;;1999.90;999.90;;;;;;;;;;5015165;28;20258;-69
2022/10/23 11:32:35;;;;;;;1999.90;999.90;;;;;;;;;;5015338;28;20257;-69
2022/10/23 11:35:24;;;;;;;1999.90;999.90;;;;;;;;;;5019691;28;20222;-69
2022/10/23 11:38:14;;;;;;;1999.90;999.90;;;;;;;;;;5032551;28;20586;-69
2022/10/23 11:41:01;;;;;;;1999.90;999.90;;;;;;;;;;5031268;28;20422;-68
2022/10/23 11:43:48;;;;;;;1999.90;999.90;;;;;;;;;;5032771;28;20755;-68
2022/10/23 11:46:34;;;;;;;1999.90;999.90;;;;;;;;;;5031171;28;20281;-68
2022/10/23 11:49:22;;;;;;;1999.90;999.90;;;;;;;;;;5032800;28;20213;-69
2022/10/23 11:52:22;;;;;;;1999.90;999.90;;;;;;;;;;5028573;28;20248;-67
2022/10/23 11:55:16;;;;;;;1999.90;999.90;;;;;;;;;;5032554;28;20221;-68
2022/10/23 11:58:17;;;;;;;1999.90;999.90;;;;;;;;;;5032527;28;20700;-69
2022/10/23 12:01:04;;;;;;;1999.90;999.90;;;;;;;;;;5029941;28;20526;-69
2022/10/23 12:03:52;;;;;;;1999.90;999.90;;;;;;;;;;5028531;28;20337;-68
2022/10/23 12:06:40;;;;;;;1999.90;999.90;;;;;;;;;;5030073;28;20216;-69
2022/10/23 12:09:27;;;;;;;1999.90;999.90;;;;;;;;;;5034416;28;20208;-68
2022/10/23 12:12:16;;;;;;;1999.90;999.90;;;;;;;;;;5034269;28;20275;-68
2022/10/23 12:15:17;;;;;;;1999.90;999.90;;;;;;;;;;5031659;28;20209;-69
2022/10/23 12:18:13;;;;;;;1999.90;999.90;;;;;;;;;;5031685;28;20575;-66
2022/10/23 12:21:00;;;;;;;1999.90;999.90;;;;;;;;;;5033986;28;20234;-68
2022/10/23 12:24:06;;;;;;;1999.90;999.90;;;;;;;;;;5034243;28;20206;-69
2022/10/23 12:27:04;;;;;;;1999.90;999.90;;;;;;;;;;5031500;28;20417;-68
2022/10/23 12:29:54;;;;;;;1999.90;999.90;;;;;;;;;;5029840;28;20256;-68
2022/10/23 12:32:49;;;;;;;1999.90;999.90;;;;;;;;;;5032090;28;20732;-68
2022/10/23 12:35:58;;;;;;;1999.90;999.90;;;;;;;;;;5031292;28;20202;-69
2022/10/23 12:38:45;;;;;;;1999.90;999.90;;;;;;;;;;5024213;28;20241;-68
2022/10/23 12:41:32;;;;;;;1999.90;999.90;;;;;;;;;;5022074;28;20233;-68
2022/10/23 12:44:17;;;;;;;1999.90;999.90;;;;;;;;;;5027831;28;20630;-69
2022/10/23 12:47:03;;;;;;;1999.90;999.90;;;;;;;;;;5030666;28;20208;-66
2022/10/23 12:49:48;;;;;;;1999.90;999.90;;;;;;;;;;5032820;28;20205;-66
2022/10/23 12:52:38;;;;;;;1999.90;999.90;;;;;;;;;;5027287;28;20230;-66
2022/10/23 12:55:23;;;;;;;1999.90;999.90;;;;;;;;;;5025718;28;20217;-68
2022/10/23 12:58:19;;;;;;;1999.90;999.90;;;;;;;;;;5033412;28;20202;-66
2022/10/23 13:01:05;;;;;;;1999.90;999.90;;;;;;;;;;5031359;28;20728;-67
2022/10/23 13:03:50;;;;;;;1999.90;999.90;;;;;;;;;;5031388;28;22217;-67
2022/10/23 13:06:35;;;;;;;1999.90;999.90;;;;;;;;;;5032889;28;20272;-67
2022/10/23 13:09:22;;;;;;;1999.90;999.90;;;;;;;;;;5013511;28;20341;-67
2022/10/23 13:12:08;;;;;;;1999.90;999.90;;;;;;;;;;5016906;28;20271;-68
2022/10/23 13:14:56;;;;;;;1999.90;999.90;;;;;;;;;;5032599;28;20230;-67
2022/10/23 13:17:42;;;;;;;1999.90;999.90;;;;;;;;;;5031786;28;20727;-67
2022/10/23 13:20:28;;;;;;;1999.90;999.90;;;;;;;;;;5032598;28;20208;-68
2022/10/23 13:23:17;;;;;;;1999.90;999.90;;;;;;;;;;5032875;28;20575;-68
2022/10/23 13:26:04;;;;;;;1999.90;999.90;;;;;;;;;;5032120;28;20576;-67
2022/10/23 13:28:49;;;;;;;1999.90;999.90;;;;;;;;;;5028242;28;20210;-66
2022/10/23 13:31:36;;;;;;;1999.90;999.90;;;;;;;;;;5032779;28;20230;-67
2022/10/23 13:34:23;;;;;;;1999.90;999.90;;;;;;;;;;5022406;28;20209;-67
2022/10/23 13:37:23;;;;;;;1999.90;999.90;;;;;;;;;;5028301;28;20791;-67
2022/10/23 13:40:22;;;;;;;1999.90;999.90;;;;;;;;;;5031227;28;20221;-67
2022/10/23 13:43:14;;;;;;;1999.90;999.90;;;;;;;;;;5030093;28;20308;-67
2022/10/23 13:45:59;;;;;;;1999.90;999.90;;;;;;;;;;5031163;28;20769;-67
2022/10/23 13:48:46;;;;;;;1999.90;999.90;;;;;;;;;;5027800;28;20234;-67
2022/10/23 13:51:33;;;;;;;1999.90;999.90;;;;;;;;;;5013642;28;20241;-68
2022/10/23 13:54:19;;;;;;;1999.90;999.90;;;;;;;;;;5029293;28;20497;-65
2022/10/23 13:57:06;;;;;;;1999.90;999.90;;;;;;;;;;5031186;28;20213;-67
2022/10/23 13:59:51;;;;;;;1999.90;999.90;;;;;;;;;;5028537;28;20218;-67
2022/10/23 14:02:36;;;;;;;1999.90;999.90;;;;;;;;;;5030142;28;20304;-67
2022/10/23 14:05:22;;;;;;;1999.90;999.90;;;;;;;;;;5024125;28;20210;-67
2022/10/23 14:08:07;;;;;;;1999.90;999.90;;;;;;;;;;5032341;28;20585;-68
2022/10/23 14:10:52;;;;;;;1999.90;999.90;;;;;;;;;;5030011;28;20330;-67
2022/10/23 14:13:37;;;;;;;1999.90;999.90;;;;;;;;;;5026540;28;20692;-67
2022/10/23 14:16:22;;;;;;;1999.90;999.90;;;;;;;;;;5031873;28;20600;-67
2022/10/23 14:19:07;;;;;;;1999.90;999.90;;;;;;;;;;5030969;28;20644;-67
2022/10/23 14:21:54;;;;;;;1999.90;999.90;;;;;;;;;;5019463;28;20301;-67
2022/10/23 14:24:39;;;;;;;1999.90;999.90;;;;;;;;;;5024499;28;20206;-67
2022/10/23 14:27:24;;;;;;;1999.90;999.90;;;;;;;;;;5030927;28;20212;-67
2022/10/23 14:30:10;;;;;;;1999.90;999.90;;;;;;;;;;5026789;28;20574;-67
2022/10/23 14:32:54;;;;;;;1999.90;999.90;;;;;;;;;;5026920;28;20225;-66
2022/10/23 14:35:39;;;;;;;1999.90;999.90;;;;;;;;;;5027901;28;20272;-67
2022/10/23 14:38:26;;;;;;;1999.90;999.90;;;;;;;;;;5023437;28;20579;-67
2022/10/23 14:41:11;;;;;;;1999.90;999.90;;;;;;;;;;5031495;28;20605;-67
2022/10/23 14:43:56;;;;;;;1999.90;999.90;;;;;;;;;;5031817;28;20281;-67
2022/10/23 14:46:41;;;;;;;1999.90;999.90;;;;;;;;;;5027605;28;20268;-67
2022/10/23 14:49:26;;;;;;;1999.90;999.90;;;;;;;;;;5024498;28;20228;-67
2022/10/23 14:52:11;;;;;;;1999.90;999.90;;;;;;;;;;5025269;28;20648;-66
2022/10/23 14:54:57;;;;;;;1999.90;999.90;;;;;;;;;;5027965;28;20210;-67
2022/10/23 14:57:42;;;;;;;1999.90;999.90;;;;;;;;;;5031593;28;20209;-67
2022/10/23 15:00:27;;;;;;;1999.90;999.90;;;;;;;;;;5031479;28;20206;-68
2022/10/23 15:03:12;;;;;;;1999.90;999.90;;;;;;;;;;5030144;28;20421;-67
2022/10/23 15:05:57;;;;;;;1999.90;999.90;;;;;;;;;;5032877;28;20272;-69
2022/10/23 15:08:42;;;;;;;1999.90;999.90;;;;;;;;;;5032375;28;20241;-68
2022/10/23 15:11:28;;;;;;;1999.90;999.90;;;;;;;;;;5032293;28;20615;-67
2022/10/23 15:14:13;;;;;;;1999.90;999.90;;;;;;;;;;5033300;28;20317;-67
2022/10/23 15:16:58;;;;;;;1999.90;999.90;;;;;;;;;;5032351;28;20301;-67
2022/10/23 15:19:43;;;;;;;1999.90;999.90;;;;;;;;;;5031492;28;20229;-69
2022/10/23 15:22:28;;;;;;;1999.90;999.90;;;;;;;;;;5031285;28;20238;-68
2022/10/23 15:25:13;;;;;;;1999.90;999.90;;;;;;;;;;5031235;28;20609;-68
2022/10/23 15:27:59;;;;;;;1999.90;999.90;;;;;;;;;;5031528;28;20281;-68
2022/10/23 15:30:44;;;;;;;1999.90;999.90;;;;;;;;;;5031341;28;20224;-69
2022/10/23 15:33:29;;;;;;;1999.90;999.90;;;;;;;;;;5031425;28;20241;-69
2022/10/23 15:36:14;;;;;;;1999.90;999.90;;;;;;;;;;5032291;28;20284;-69
2022/10/23 15:38:59;;;;;;;1999.90;999.90;;;;;;;;;;5035064;28;20230;-69
2022/10/23 15:41:44;;;;;;;1999.90;999.90;;;;;;;;;;5034796;28;20727;-68
2022/10/23 15:44:31;;;;;;;1999.90;999.90;;;;;;;;;;5034893;28;20723;-68
2022/10/23 15:47:16;;;;;;;1999.90;999.90;;;;;;;;;;5034750;28;20809;-69
2022/10/23 15:50:01;;;;;;;1999.90;999.90;;;;;;;;;;5034708;28;20546;-68
2022/10/23 15:52:46;;;;;;;1999.90;999.90;;;;;;;;;;5034728;28;20365;-69
2022/10/23 15:55:30;;;;;;;1999.90;999.90;;;;;;;;;;5034459;28;20683;-69
2022/10/23 15:58:15;;;;;;;1999.90;999.90;;;;;;;;;;5034435;28;20197;-68
2022/10/23 16:01:05;;;;;;;1999.90;999.90;;;;;;;;;;5034434;28;20229;-69
2022/10/23 16:03:50;;;;;;;1999.90;999.90;;;;;;;;;;5034610;28;20210;-69
2022/10/23 16:06:35;;;;;;;1999.90;999.90;;;;;;;;;;5034331;28;20210;-69
2022/10/23 16:09:20;;;;;;;1999.90;999.90;;;;;;;;;;5034627;28;20218;-69
2022/10/23 16:12:05;;;;;;;1999.90;999.90;;;;;;;;;;5033014;28;20425;-69
2022/10/23 16:14:50;;;;;;;1999.90;999.90;;;;;;;;;;5034046;28;20209;-69
2022/10/23 16:17:37;;;;;;;1999.90;999.90;;;;;;;;;;5034381;28;20696;-68
2022/10/23 16:20:22;;;;;;;1999.90;999.90;;;;;;;;;;5033909;28;20206;-69
2022/10/23 16:23:06;;;;;;;1999.90;999.90;;;;;;;;;;5033935;28;20735;-68
2022/10/23 16:25:51;;;;;;;1999.90;999.90;;;;;;;;;;5033914;28;20210;-69
2022/10/23 16:28:36;;;;;;;1999.90;999.90;;;;;;;;;;5034031;28;20210;-69
2022/10/23 16:31:22;;;;;;;1999.90;999.90;;;;;;;;;;5033802;28;20226;-67
2022/10/23 16:34:10;;;;;;;1999.90;999.90;;;;;;;;;;5033949;28;20292;-66
2022/10/23 16:36:55;;;;;;;1999.90;999.90;;;;;;;;;;5033902;28;20692;-68
2022/10/23 16:39:39;;;;;;;1999.90;999.90;;;;;;;;;;5033920;28;20368;-66
2022/10/23 16:42:24;;;;;;;1999.90;999.90;;;;;;;;;;5033685;28;20222;-67
2022/10/23 16:45:10;;;;;;;1999.90;999.90;;;;;;;;;;5033503;28;20245;-67
2022/10/23 16:47:55;;;;;;;1999.90;999.90;;;;;;;;;;5033367;28;20205;-66
2022/10/23 16:50:41;;;;;;;1999.90;999.90;;;;;;;;;;5033712;28;20198;-66
2022/10/23 16:53:29;;;;;;;1999.90;999.90;;;;;;;;;;5033321;28;20197;-67
2022/10/23 16:56:15;;;;;;;1999.90;999.90;;;;;;;;;;5033350;28;20754;-66
2022/10/23 16:59:00;;;;;;;1999.90;999.90;;;;;;;;;;5033537;28;20735;-67
2022/10/23 17:01:45;;;;;;;1999.90;999.90;;;;;;;;;;5033103;28;20241;-67
2022/10/23 17:04:30;;;;;;;1999.90;999.90;;;;;;;;;;5033147;28;20205;-67
2022/10/23 17:07:16;;;;;;;1999.90;999.90;;;;;;;;;;5033472;28;20225;-67
2022/10/23 17:10:01;;;;;;;1999.90;999.90;;;;;;;;;;5033295;28;20213;-67
2022/10/23 17:12:46;;;;;;;1999.90;999.90;;;;;;;;;;5033167;28;20727;-68
2022/10/23 17:15:31;;;;;;;1999.90;999.90;;;;;;;;;;5032736;28;20587;-68
2022/10/23 17:18:15;;;;;;;1999.90;999.90;;;;;;;;;;5032951;28;20202;-68
2022/10/23 17:21:00;;;;;;;1999.90;999.90;;;;;;;;;;5031429;28;20482;-68
2022/10/23 17:23:47;;;;;;;1999.90;999.90;;;;;;;;;;5032832;28;20229;-67
2022/10/23 17:26:32;;;;;;;1999.90;999.90;;;;;;;;;;5032902;28;20413;-68
2022/10/23 17:29:18;;;;;;;1999.90;999.90;;;;;;;;;;5033026;28;20212;-68
2022/10/23 17:32:03;;;;;;;1999.90;999.90;;;;;;;;;;5032872;28;20349;-68
2022/10/23 17:34:48;;;;;;;1999.90;999.90;;;;;;;;;;5032656;28;20229;-68
2022/10/23 17:37:33;;;;;;;1999.90;999.90;;;;;;;;;;5032552;28;20206;-68
2022/10/23 17:40:19;;;;;;;1999.90;999.90;;;;;;;;;;5032787;28;20206;-68
2022/10/23 17:43:04;;;;;;;1999.90;999.90;;;;;;;;;;5032496;28;20304;-68
2022/10/23 17:45:49;;;;;;;1999.90;999.90;;;;;;;;;;5032412;28;20209;-67
2022/10/23 17:48:34;;;;;;;1999.90;999.90;;;;;;;;;;5032641;28;20288;-66
2022/10/23 17:51:20;;;;;;;1999.90;999.90;;;;;;;;;;5032565;28;20225;-67
2022/10/23 17:54:05;;;;;;;1999.90;999.90;;;;;;;;;;5032571;28;20626;-68
2022/10/23 17:56:52;;;;;;;1999.90;999.90;;;;;;;;;;5032445;28;20723;-67
2022/10/23 17:59:37;;;;;;;1999.90;999.90;;;;;;;;;;5031272;28;20214;-68
2022/10/23 18:02:22;;;;;;;1999.90;999.90;;;;;;;;;;5032075;28;20236;-68
2022/10/23 18:05:07;;;;;;;1999.90;999.90;;;;;;;;;;5032056;28;20253;-67
2022/10/23 18:07:54;;;;;;;1999.90;999.90;;;;;;;;;;5032278;28;20210;-68
2022/10/23 18:10:39;;;;;;;1999.90;999.90;;;;;;;;;;5032155;28;20631;-68
2022/10/23 18:13:25;;;;;;;1999.90;999.90;;;;;;;;;;5032224;28;20681;-67
2022/10/23 18:16:11;;;;;;;1999.90;999.90;;;;;;;;;;5031929;28;20210;-68
2022/10/23 18:18:58;;;;;;;1999.90;999.90;;;;;;;;;;5032603;28;20557;-68
2022/10/23 18:21:43;;;;;;;1999.90;999.90;;;;;;;;;;5031784;28;20225;-66
2022/10/23 18:24:29;;;;;;;1999.90;999.90;;;;;;;;;;5031785;28;20306;-67
2022/10/23 18:27:14;;;;;;;1999.90;999.90;;;;;;;;;;5031821;28;20379;-67
2022/10/23 18:30:02;;;;;;;1999.90;999.90;;;;;;;;;;5032017;28;20600;-67
2022/10/23 18:32:46;;;;;;;1999.90;999.90;;;;;;;;;;5032003;28;20201;-68
2022/10/23 18:35:33;;;;;;;1999.90;999.90;;;;;;;;;;5031680;28;20700;-68
2022/10/23 18:38:18;;;;;;;1999.90;999.90;;;;;;;;;;5030985;28;20249;-68
2022/10/23 18:41:03;;;;;;;1999.90;999.90;;;;;;;;;;5031766;28;20229;-66
2022/10/23 18:43:48;;;;;;;1999.90;999.90;;;;;;;;;;5031661;28;20221;-68
2022/10/23 18:46:34;;;;;;;1999.90;999.90;;;;;;;;;;5031709;28;20201;-69
2022/10/23 18:49:19;;;;;;;1999.90;999.90;;;;;;;;;;5031885;28;20206;-67
2022/10/23 18:52:04;;;;;;;1999.90;999.90;;;;;;;;;;5032212;28;20352;-67
2022/10/23 18:54:49;;;;;;;1999.90;999.90;;;;;;;;;;5031276;28;20200;-67
2022/10/23 18:57:35;;;;;;;1999.90;999.90;;;;;;;;;;5031894;28;20687;-67
2022/10/23 19:00:21;;;;;;;1999.90;999.90;;;;;;;;;;5031695;28;20213;-69
2022/10/23 19:03:07;;;;;;;1999.90;999.90;;;;;;;;;;5031683;28;20600;-68
2022/10/23 19:05:52;;;;;;;1999.90;999.90;;;;;;;;;;5031161;28;20206;-68
2022/10/23 19:08:38;;;;;;;1999.90;999.90;;;;;;;;;;5032137;28;20220;-68
2022/10/23 19:11:24;;;;;;;1999.90;999.90;;;;;;;;;;5033310;28;20230;-68
2022/10/23 19:14:09;;;;;;;1999.90;999.90;;;;;;;;;;5035442;28;20766;-68
2022/10/23 19:16:57;;;;;;;1999.90;999.90;;;;;;;;;;5035224;28;20628;-67
2022/10/23 19:19:45;;;;;;;1999.90;999.90;;;;;;;;;;5023499;28;20213;-68
2022/10/23 19:22:32;;;;;;;1999.90;999.90;;;;;;;;;;5031518;28;20366;-68
2022/10/23 19:25:19;;;;;;;1999.90;999.90;;;;;;;;;;5034858;28;20704;-68
2022/10/23 19:28:04;;;;;;;1999.90;999.90;;;;;;;;;;5033927;28;20214;-69
2022/10/23 19:30:49;;;;;;;1999.90;999.90;;;;;;;;;;5035061;28;20344;-69